Time;durP1;ratioP1;P1;durP2;ratioP2;P2;SDS_P1;SDS_P2;PMS_P1;PMS_P2;Temp;Humidity;BMP_temperature;BMP_pressure;BME280_temperature;BME280_humidity;BME280_pressure;Samples;Min_cycle;Max_cycle;Signal;HPM_P1;HPM_P2
2022/07/10 00:00:06;;;;;;;9.50;1.67;;;13.90;99.90;;;;;;5073683;28;20162;-84
2022/07/10 00:02:31;;;;;;;10.98;2.92;;;13.80;99.90;;;;;;5091875;28;20055;-84
2022/07/10 00:04:57;;;;;;;13.68;2.25;;;13.90;99.90;;;;;;5091479;28;20401;-84
2022/07/10 00:07:22;;;;;;;9.30;1.70;;;13.80;99.90;;;;;;5074000;28;20505;-84
2022/07/10 00:09:48;;;;;;;8.93;2.45;;;13.70;99.90;;;;;;5090415;28;20040;-84
2022/07/10 00:12:13;;;;;;;12.52;3.05;;;13.70;99.90;;;;;;5089688;28;20031;-84
2022/07/10 00:14:39;;;;;;;11.40;2.67;;;13.80;99.90;;;;;;5090376;28;20424;-83
2022/07/10 00:17:05;;;;;;;7.22;1.60;;;13.70;99.90;;;;;;5090669;28;20089;-83
2022/07/10 00:19:30;;;;;;;9.10;1.90;;;13.70;99.90;;;;;;5090172;28;20051;-83
2022/07/10 00:21:56;;;;;;;9.40;1.77;;;13.60;99.90;;;;;;5091474;28;20039;-83
2022/07/10 00:24:21;;;;;;;8.32;1.73;;;13.60;99.90;;;;;;5090166;28;20063;-83
2022/07/10 00:26:47;;;;;;;8.65;2.20;;;13.60;99.90;;;;;;5074222;28;20040;-84
2022/07/10 00:29:13;;;;;;;9.05;1.98;;;13.60;99.90;;;;;;5073629;28;20040;-83
2022/07/10 00:31:39;;;;;;;10.90;2.75;;;13.50;99.90;;;;;;5088619;28;20028;-83
2022/07/10 00:34:06;;;;;;;6.28;1.48;;;13.50;99.90;;;;;;5090201;28;20039;-84
2022/07/10 00:36:32;;;;;;;7.82;1.50;;;13.50;99.90;;;;;;5089882;28;20047;-84
2022/07/10 00:38:57;;;;;;;11.85;1.65;;;13.40;99.90;;;;;;5073064;28;20036;-83
2022/07/10 00:41:23;;;;;;;6.15;1.63;;;13.40;99.90;;;;;;5090849;28;20240;-84
2022/07/10 00:43:59;;;;;;;12.02;2.92;;;13.40;99.90;;;;;;5089371;28;20580;-84
2022/07/10 00:46:26;;;;;;;11.40;2.53;;;13.50;99.90;;;;;;5090563;28;20199;-84
2022/07/10 00:48:52;;;;;;;7.38;1.60;;;13.50;99.90;;;;;;5091240;28;20051;-84
2022/07/10 00:51:20;;;;;;;11.43;2.05;;;13.50;99.90;;;;;;5089289;28;20139;-84
2022/07/10 00:53:46;;;;;;;5.93;1.48;;;13.40;99.90;;;;;;5089511;28;20036;-83
2022/07/10 00:56:16;;;;;;;8.60;2.38;;;13.30;99.90;;;;;;5072579;28;20088;-83
2022/07/10 00:58:43;;;;;;;8.05;2.75;;;13.40;99.90;;;;;;5072946;28;20032;-84
2022/07/10 01:01:09;;;;;;;10.23;1.73;;;13.40;99.90;;;;;;5072523;28;20032;-83
2022/07/10 01:03:35;;;;;;;8.75;1.67;;;13.40;99.90;;;;;;5090226;28;20086;-85
2022/07/10 01:06:01;;;;;;;9.93;2.75;;;13.30;99.90;;;;;;5090933;28;20115;-84
2022/07/10 01:08:27;;;;;;;10.25;1.48;;;13.40;99.90;;;;;;5090142;28;20489;-83
2022/07/10 01:10:52;;;;;;;7.05;1.55;;;13.40;99.90;;;;;;5089254;28;20039;-83
2022/07/10 01:13:19;;;;;;;8.63;1.33;;;13.40;99.90;;;;;;5071667;28;20639;-83
2022/07/10 01:15:45;;;;;;;8.27;1.60;;;13.30;99.90;;;;;;5072541;28;20032;-83
2022/07/10 01:18:11;;;;;;;8.35;1.90;;;13.30;99.90;;;;;;5072661;28;20038;-84
2022/07/10 01:20:36;;;;;;;6.22;1.17;;;13.30;99.90;;;;;;5089176;28;20127;-83
2022/07/10 01:23:02;;;;;;;8.90;1.67;;;13.30;99.90;;;;;;5090238;28;20039;-84
2022/07/10 01:25:28;;;;;;;11.48;2.40;;;13.40;99.90;;;;;;5089295;28;20040;-84
2022/07/10 01:27:54;;;;;;;4.65;1.27;;;13.40;99.90;;;;;;5089777;28;20520;-84
2022/07/10 01:30:20;;;;;;;6.88;1.48;;;13.50;99.90;;;;;;5089499;28;20067;-84
2022/07/10 01:32:47;;;;;;;9.45;1.95;;;13.40;99.90;;;;;;5070983;28;20071;-84
2022/07/10 01:35:13;;;;;;;9.20;1.50;;;13.40;99.90;;;;;;5072803;28;20038;-83
2022/07/10 01:37:39;;;;;;;9.18;1.67;;;13.50;99.90;;;;;;5072182;28;20035;-84
2022/07/10 01:40:07;;;;;;;10.60;2.38;;;13.50;99.90;;;;;;5088883;28;20036;-83
2022/07/10 01:42:32;;;;;;;9.32;1.23;;;13.50;99.90;;;;;;5090153;28;20075;-83
2022/07/10 01:44:58;;;;;;;10.55;2.28;;;13.50;99.90;;;;;;5088497;28;20090;-83
2022/07/10 01:47:25;;;;;;;7.13;1.73;;;13.40;99.90;;;;;;5089864;28;20051;-83
2022/07/10 01:49:52;;;;;;;13.82;2.72;;;13.40;99.90;;;;;;5072380;28;20512;-83
2022/07/10 01:52:18;;;;;;;9.73;1.90;;;13.40;99.90;;;;;;5070731;28;20386;-83
2022/07/10 01:54:43;;;;;;;11.65;2.67;;;13.50;99.90;;;;;;5088789;28;20047;-83
2022/07/10 01:57:09;;;;;;;7.28;1.58;;;13.50;99.90;;;;;;5074488;28;20040;-83
2022/07/10 01:59:35;;;;;;;9.98;2.08;;;13.60;99.90;;;;;;5076137;28;20517;-84
2022/07/10 02:02:00;;;;;;;10.52;2.40;;;13.60;99.90;;;;;;5093819;28;20039;-83
2022/07/10 02:04:41;;;;;;;9.73;1.65;;;13.60;99.90;;;;;;5076683;28;20535;-84
2022/07/10 02:07:14;;;;;;;13.30;2.63;;;13.70;99.90;;;;;;5075953;28;20044;-83
2022/07/10 02:09:41;;;;;;;9.50;1.55;;;13.70;99.90;;;;;;5076776;28;20047;-84
2022/07/10 02:12:07;;;;;;;7.75;1.42;;;13.70;99.90;;;;;;5092042;28;20039;-83
2022/07/10 02:14:33;;;;;;;12.23;2.13;;;13.60;99.90;;;;;;5091354;28;20051;-83
2022/07/10 02:16:59;;;;;;;10.57;2.55;;;13.60;99.90;;;;;;5093348;28;20417;-83
2022/07/10 02:19:25;;;;;;;10.35;1.70;;;13.60;99.90;;;;;;5091729;28;20032;-83
2022/07/10 02:21:51;;;;;;;6.35;1.55;;;13.60;99.90;;;;;;5093865;28;20528;-83
2022/07/10 02:24:17;;;;;;;10.80;2.13;;;13.50;99.90;;;;;;5092803;28;20024;-84
2022/07/10 02:26:42;;;;;;;11.98;2.65;;;13.50;99.90;;;;;;5092875;28;20067;-84
2022/07/10 02:29:08;;;;;;;13.23;2.60;;;13.40;99.90;;;;;;5109549;28;20032;-84
2022/07/10 02:31:34;;;;;;;8.70;1.60;;;13.40;99.90;;;;;;5092489;28;20047;-83
2022/07/10 02:34:01;;;;;;;8.25;1.45;;;13.40;99.90;;;;;;5091681;28;20486;-83
2022/07/10 02:36:26;;;;;;;15.23;1.73;;;13.30;99.90;;;;;;5075374;28;20115;-83
2022/07/10 02:38:52;;;;;;;8.75;1.55;;;13.20;99.90;;;;;;5091065;28;20119;-83
2022/07/10 02:41:17;;;;;;;12.80;2.80;;;13.20;99.90;;;;;;5075838;28;20125;-84
2022/07/10 02:43:43;;;;;;;18.08;2.55;;;13.20;99.90;;;;;;5092288;28;20089;-83
2022/07/10 02:46:08;;;;;;;11.60;2.15;;;13.30;99.90;;;;;;5076058;28;20036;-83
2022/07/10 02:48:34;;;;;;;10.43;1.70;;;13.30;99.90;;;;;;5092338;28;20086;-83
2022/07/10 02:51:00;;;;;;;11.02;2.30;;;13.30;99.90;;;;;;5092426;28;20405;-83
2022/07/10 02:53:25;;;;;;;7.22;1.63;;;13.30;99.90;;;;;;5091286;28;20390;-84
2022/07/10 02:55:51;;;;;;;8.38;2.20;;;13.30;99.90;;;;;;5091495;28;20630;-83
2022/07/10 02:58:17;;;;;;;10.57;1.90;;;13.30;99.90;;;;;;5075526;28;20047;-83
2022/07/10 03:00:43;;;;;;;11.52;2.83;;;13.30;99.90;;;;;;5091679;28;20085;-83
2022/07/10 03:03:08;;;;;;;12.38;1.90;;;13.30;99.90;;;;;;5076027;28;20036;-84
2022/07/10 03:05:34;;;;;;;9.75;1.55;;;13.30;99.90;;;;;;5092363;28;20040;-83
2022/07/10 03:08:00;;;;;;;10.57;2.53;;;13.20;99.90;;;;;;5091198;28;20046;-84
2022/07/10 03:10:25;;;;;;;8.52;1.92;;;13.20;99.90;;;;;;5092373;28;20065;-83
2022/07/10 03:12:51;;;;;;;15.10;2.92;;;13.20;99.90;;;;;;5073953;28;20032;-84
2022/07/10 03:15:17;;;;;;;8.95;1.55;;;13.20;99.90;;;;;;5074383;28;20398;-84
2022/07/10 03:17:42;;;;;;;11.18;1.95;;;13.20;99.90;;;;;;5074573;28;20035;-84
2022/07/10 03:20:09;;;;;;;8.00;1.85;;;13.20;99.90;;;;;;5074218;28;20043;-84
2022/07/10 03:22:35;;;;;;;11.25;2.05;;;13.10;99.90;;;;;;5075597;28;20038;-83
2022/07/10 03:25:01;;;;;;;12.45;1.80;;;13.20;99.90;;;;;;5091503;28;20043;-84
2022/07/10 03:27:26;;;;;;;8.13;1.83;;;13.20;99.90;;;;;;5091694;28;20066;-84
2022/07/10 03:29:52;;;;;;;7.78;1.38;;;13.20;99.90;;;;;;5075315;28;20040;-84
2022/07/10 03:32:17;;;;;;;9.40;2.22;;;13.10;99.90;;;;;;5090773;28;20036;-83
2022/07/10 03:34:43;;;;;;;11.98;2.35;;;13.20;99.90;;;;;;5090849;28;20127;-84
2022/07/10 03:37:09;;;;;;;9.23;1.40;;;13.20;99.90;;;;;;5073997;28;20036;-84
2022/07/10 03:39:35;;;;;;;11.30;2.42;;;13.00;99.90;;;;;;5091024;28;20032;-84
2022/07/10 03:42:00;;;;;;;6.88;1.45;;;13.00;99.90;;;;;;5075342;28;20043;-83
2022/07/10 03:44:26;;;;;;;7.25;1.40;;;12.90;99.90;;;;;;5074370;28;20051;-83
2022/07/10 03:46:51;;;;;;;8.98;1.67;;;12.90;99.90;;;;;;5074463;28;20075;-83
2022/07/10 03:49:17;;;;;;;9.52;1.42;;;12.80;99.90;;;;;;5074003;28;20118;-83
2022/07/10 03:51:43;;;;;;;7.72;1.23;;;12.80;99.90;;;;;;5074737;28;20467;-83
2022/07/10 03:54:08;;;;;;;10.45;2.65;;;12.70;99.90;;;;;;5073021;28;20032;-83
2022/07/10 03:59:18;;;;;;;8.27;1.55;;;12.80;99.90;;;;;;5090302;28;20044;-84
2022/07/10 04:01:43;;;;;;;10.02;1.63;;;12.80;99.90;;;;;;5074279;28;20040;-84
2022/07/10 04:04:09;;;;;;;8.93;1.63;;;12.90;99.90;;;;;;5086363;28;20079;-81
2022/07/10 04:06:37;;;;;;;12.45;1.65;;;12.90;99.90;;;;;;5087468;28;20036;-83
2022/07/10 04:09:04;;;;;;;11.48;1.92;;;13.00;99.90;;;;;;5091406;28;20645;-82
2022/07/10 04:11:29;;;;;;;9.15;2.42;;;13.00;99.90;;;;;;5091177;28;20443;-83
2022/07/10 04:13:55;;;;;;;7.45;1.50;;;13.10;99.90;;;;;;5089511;28;20493;-83
2022/07/10 04:16:21;;;;;;;11.15;2.38;;;13.20;99.90;;;;;;5090291;28;20051;-83
2022/07/10 04:18:46;;;;;;;10.88;2.45;;;13.20;99.90;;;;;;5073673;28;20032;-83
2022/07/10 04:21:12;;;;;;;9.80;1.80;;;13.30;99.90;;;;;;5089874;28;20040;-83
2022/07/10 04:23:37;;;;;;;7.68;1.80;;;13.30;99.90;;;;;;5074615;28;20032;-83
2022/07/10 04:26:03;;;;;;;11.10;1.42;;;13.30;99.90;;;;;;5073370;28;20119;-84
2022/07/10 04:28:28;;;;;;;6.13;1.52;;;13.30;99.90;;;;;;5073892;28;20127;-83
2022/07/10 04:30:54;;;;;;;12.60;2.60;;;13.30;99.90;;;;;;5090083;28;20782;-83
2022/07/10 04:33:19;;;;;;;11.18;1.50;;;13.30;99.90;;;;;;5088954;28;20054;-83
2022/07/10 04:35:45;;;;;;;8.05;1.67;;;13.30;99.90;;;;;;5089633;28;20522;-83
2022/07/10 04:38:11;;;;;;;10.68;1.88;;;13.40;99.90;;;;;;5073137;28;20382;-83
2022/07/10 04:40:36;;;;;;;10.85;2.20;;;13.40;99.90;;;;;;5072884;28;20127;-83
2022/07/10 04:43:02;;;;;;;8.23;1.27;;;13.40;99.90;;;;;;5089844;28;20036;-83
2022/07/10 04:45:27;;;;;;;11.25;2.50;;;13.50;99.90;;;;;;5073734;28;20042;-84
2022/07/10 04:47:53;;;;;;;9.52;1.45;;;13.50;99.90;;;;;;5090357;28;20047;-83
2022/07/10 04:50:18;;;;;;;10.15;1.67;;;13.50;99.90;;;;;;5089927;28;20036;-83
2022/07/10 04:52:44;;;;;;;10.75;2.33;;;13.50;99.90;;;;;;5090100;28;20039;-83
2022/07/10 04:55:10;;;;;;;6.70;1.40;;;13.50;99.90;;;;;;5072397;28;20485;-84
2022/07/10 04:57:35;;;;;;;11.13;2.05;;;13.50;99.90;;;;;;5072723;28;20040;-84
2022/07/10 05:00:01;;;;;;;12.00;2.30;;;13.50;99.90;;;;;;5072699;28;20401;-84
2022/07/10 05:02:27;;;;;;;9.02;1.63;;;13.50;99.90;;;;;;5089751;28;20067;-83
2022/07/10 05:04:52;;;;;;;10.60;2.20;;;13.50;99.90;;;;;;5090641;28;20086;-84
2022/07/10 05:07:18;;;;;;;11.63;1.55;;;13.60;99.90;;;;;;5073217;28;20043;-84
2022/07/10 05:09:44;;;;;;;8.52;1.75;;;13.60;99.90;;;;;;5072714;28;20044;-83
2022/07/10 05:12:09;;;;;;;8.38;1.30;;;13.60;99.90;;;;;;5089718;28;20035;-83
2022/07/10 05:14:35;;;;;;;9.88;2.22;;;13.50;99.90;;;;;;5071856;28;20035;-83
2022/07/10 05:17:00;;;;;;;8.30;1.50;;;13.60;99.90;;;;;;5088803;28;20546;-83
2022/07/10 05:19:26;;;;;;;6.53;1.35;;;13.60;99.90;;;;;;5072947;28;20039;-84
2022/07/10 05:21:52;;;;;;;10.30;1.88;;;13.60;99.90;;;;;;5088804;28;20036;-83
2022/07/10 05:24:17;;;;;;;11.60;2.50;;;13.60;99.90;;;;;;5090134;28;20044;-83
2022/07/10 05:26:43;;;;;;;8.60;1.17;;;13.70;99.90;;;;;;5072741;28;20043;-83
2022/07/10 05:29:08;;;;;;;9.00;1.70;;;13.80;99.90;;;;;;5070930;28;20036;-83
2022/07/10 05:31:34;;;;;;;9.73;2.05;;;13.80;99.90;;;;;;5089536;28;20129;-83
2022/07/10 05:33:59;;;;;;;9.25;1.60;;;13.90;99.90;;;;;;5087623;28;20036;-83
2022/07/10 05:36:25;;;;;;;10.32;2.40;;;14.00;99.90;;;;;;5088628;28;20036;-83
2022/07/10 05:38:51;;;;;;;7.60;1.50;;;14.10;99.90;;;;;;5089104;28;20088;-83
2022/07/10 05:41:16;;;;;;;9.20;2.05;;;14.10;99.90;;;;;;5087697;28;20613;-83
2022/07/10 05:43:42;;;;;;;11.55;2.15;;;14.20;99.90;;;;;;5089206;28;20040;-83
2022/07/10 05:46:08;;;;;;;9.57;2.30;;;14.20;99.90;;;;;;5088814;28;20034;-83
2022/07/10 05:48:33;;;;;;;10.80;2.13;;;14.30;99.90;;;;;;5072173;28;20044;-83
2022/07/10 05:50:59;;;;;;;12.75;2.65;;;14.40;99.90;;;;;;5088696;28;20064;-83
2022/07/10 05:53:24;;;;;;;11.43;2.42;;;14.40;99.90;;;;;;5088094;28;20493;-83
2022/07/10 05:55:50;;;;;;;11.85;1.70;;;14.50;99.90;;;;;;5071382;28;20143;-83
2022/07/10 05:58:16;;;;;;;12.43;2.50;;;14.50;99.90;;;;;;5087923;28;20032;-83
2022/07/10 06:00:45;;;;;;;10.65;2.72;;;14.60;99.90;;;;;;5088460;28;20085;-83
2022/07/10 06:03:11;;;;;;;12.68;2.50;;;14.70;99.90;;;;;;5071803;28;20028;-83
2022/07/10 06:05:38;;;;;;;11.52;2.25;;;14.70;99.90;;;;;;5072576;28;20117;-83
2022/07/10 06:08:03;;;;;;;12.80;2.45;;;14.70;99.90;;;;;;5088839;28;20044;-83
2022/07/10 06:10:29;;;;;;;10.32;2.72;;;14.70;99.90;;;;;;5088061;28;20048;-84
2022/07/10 06:12:55;;;;;;;9.65;1.98;;;14.80;99.90;;;;;;5088645;28;20052;-84
2022/07/10 06:15:20;;;;;;;8.35;1.80;;;14.80;99.90;;;;;;5069290;28;20028;-84
2022/07/10 06:17:46;;;;;;;13.30;2.80;;;14.90;99.90;;;;;;5071687;28;20085;-83
2022/07/10 06:20:12;;;;;;;9.48;2.03;;;14.90;99.90;;;;;;5088014;28;20071;-83
2022/07/10 06:22:39;;;;;;;10.07;2.90;;;14.90;99.90;;;;;;5088235;28;20390;-83
2022/07/10 06:25:06;;;;;;;10.73;2.42;;;15.00;99.90;;;;;;5089265;28;20040;-83
2022/07/10 06:27:33;;;;;;;11.70;2.83;;;15.10;99.90;;;;;;5071571;28;20052;-83
2022/07/10 06:29:59;;;;;;;11.82;2.50;;;15.20;99.90;;;;;;5071479;28;20044;-83
2022/07/10 06:32:26;;;;;;;8.25;1.75;;;15.20;99.90;;;;;;5072092;28;20036;-84
2022/07/10 06:34:53;;;;;;;13.45;2.70;;;15.20;99.90;;;;;;5087123;28;20036;-84
2022/07/10 06:37:20;;;;;;;9.35;2.20;;;15.30;99.90;;;;;;5088248;28;20157;-84
2022/07/10 06:39:49;;;;;;;9.80;2.47;;;15.30;99.90;;;;;;5070909;28;20046;-84
2022/07/10 06:42:15;;;;;;;14.02;2.83;;;15.40;99.90;;;;;;5088324;28;20493;-84
2022/07/10 06:44:44;;;;;;;11.82;2.88;;;15.40;99.90;;;;;;5075420;28;20124;-84
2022/07/10 06:50:00;;;;;;;9.20;2.08;;;15.50;99.90;;;;;;5091473;28;20044;-84
2022/07/10 06:52:26;;;;;;;13.85;3.03;;;15.40;99.90;;;;;;5091866;28;20046;-84
2022/07/10 06:54:53;;;;;;;14.68;2.35;;;15.50;99.90;;;;;;5092847;28;20032;-84
2022/07/10 06:57:19;;;;;;;12.75;2.78;;;15.50;99.90;;;;;;5074133;28;20469;-84
2022/07/10 06:59:45;;;;;;;12.77;2.95;;;15.60;99.90;;;;;;5074886;28;20043;-84
2022/07/10 07:02:12;;;;;;;10.50;2.05;;;15.60;99.90;;;;;;5091711;28;20400;-84
2022/07/10 07:04:37;;;;;;;13.82;3.03;;;15.60;99.90;;;;;;5091590;28;20650;-84
2022/07/10 07:07:03;;;;;;;14.13;3.00;;;15.60;99.90;;;;;;5092030;28;20075;-84
2022/07/10 07:09:29;;;;;;;8.15;2.20;;;15.60;99.90;;;;;;5074398;28;20036;-84
2022/07/10 07:11:54;;;;;;;11.05;3.00;;;15.70;99.90;;;;;;5074102;28;20572;-84
2022/07/10 07:14:20;;;;;;;9.90;2.80;;;15.70;99.90;;;;;;5091106;28;20069;-83
2022/07/10 07:16:56;;;;;;;14.00;2.92;;;15.70;99.90;;;;;;5090715;28;20093;-84
2022/07/10 07:19:30;;;;;;;10.80;2.80;;;15.80;99.90;;;;;;5073635;28;20131;-83
2022/07/10 07:24:43;;;;;;;12.15;2.70;;;16.00;99.90;;;;;;5092566;28;20048;-84
2022/07/10 07:27:13;;;;;;;9.30;2.60;;;16.00;99.90;;;;;;5092081;28;20124;-84
2022/07/10 07:29:38;;;;;;;10.80;2.35;;;16.00;99.90;;;;;;5090476;28;20051;-84
2022/07/10 07:32:04;;;;;;;10.88;2.40;;;16.10;99.90;;;;;;5091277;28;20044;-84
2022/07/10 07:34:30;;;;;;;9.75;2.30;;;16.20;99.90;;;;;;5091082;28;20031;-84
2022/07/10 07:36:57;;;;;;;9.93;2.53;;;16.30;99.90;;;;;;5089653;28;20070;-84
2022/07/10 07:39:23;;;;;;;9.85;2.42;;;16.40;99.90;;;;;;5091179;28;20066;-84
2022/07/10 07:41:50;;;;;;;8.57;2.20;;;16.50;99.90;;;;;;5073085;28;20739;-84
2022/07/10 07:44:17;;;;;;;9.23;2.45;;;16.60;99.90;;;;;;5074287;28;20040;-84
2022/07/10 07:46:43;;;;;;;10.80;2.40;;;16.70;99.90;;;;;;5074499;28;20036;-84
2022/07/10 07:49:09;;;;;;;8.05;1.88;;;16.70;99.90;;;;;;5090199;28;20131;-84
2022/07/10 07:51:34;;;;;;;9.90;2.25;;;16.80;99.90;;;;;;5091431;28;20122;-83
2022/07/10 07:54:00;;;;;;;7.65;1.70;;;16.80;99.90;;;;;;5089005;28;20111;-83
2022/07/10 07:56:26;;;;;;;7.68;1.45;;;16.90;99.90;;;;;;5059027;28;20044;-84
2022/07/10 07:58:51;;;;;;;9.73;2.13;;;16.90;99.90;;;;;;5074128;28;20059;-84
2022/07/10 08:01:19;;;;;;;8.52;1.80;;;17.00;99.90;;;;;;5089385;28;20557;-84
2022/07/10 08:03:45;;;;;;;8.75;2.10;;;17.00;99.90;;;;;;5091192;28;20082;-84
2022/07/10 08:06:10;;;;;;;8.70;2.17;;;17.10;99.90;;;;;;5091107;28;20056;-84
2022/07/10 08:08:36;;;;;;;10.98;1.85;;;17.20;99.90;;;;;;5091203;28;20526;-84
2022/07/10 08:11:02;;;;;;;11.02;1.80;;;17.30;99.90;;;;;;5092385;28;20040;-84
2022/07/10 08:13:28;;;;;;;7.32;1.70;;;17.40;99.90;;;;;;5090495;28;20382;-84
2022/07/10 08:15:54;;;;;;;9.10;1.98;;;17.40;99.90;;;;;;5063705;28;20070;-84
2022/07/10 08:18:20;;;;;;;6.53;1.35;;;17.50;99.90;;;;;;5082997;28;20059;-84
2022/07/10 08:20:45;;;;;;;7.25;1.80;;;17.60;99.90;;;;;;5077221;28;20039;-84
2022/07/10 08:23:11;;;;;;;9.98;2.42;;;17.60;99.90;;;;;;5063688;28;20048;-84
2022/07/10 08:25:37;;;;;;;9.27;2.22;;;17.70;99.90;;;;;;5084191;28;20065;-84
2022/07/10 08:28:05;;;;;;;6.10;1.83;;;17.70;99.90;;;;;;5078918;28;20036;-84
2022/07/10 08:30:31;;;;;;;5.22;1.25;;;17.70;99.90;;;;;;5089971;28;20059;-84
2022/07/10 08:32:57;;;;;;;7.22;2.20;;;17.60;99.90;;;;;;5091002;28;20040;-84
2022/07/10 08:35:23;;;;;;;7.10;1.55;;;17.60;99.90;;;;;;5089809;28;20040;-84
2022/07/10 08:37:48;;;;;;;5.10;1.08;;;17.60;99.90;;;;;;5089994;28;20108;-84
2022/07/10 08:40:15;;;;;;;8.48;1.77;;;17.60;99.90;;;;;;5090168;28;20173;-84
2022/07/10 08:42:44;;;;;;;6.45;1.38;;;17.60;99.90;;;;;;5089537;28;20047;-84
2022/07/10 08:45:11;;;;;;;8.32;2.20;;;17.60;99.90;;;;;;5090667;28;20044;-84
2022/07/10 08:47:38;;;;;;;9.35;2.38;;;17.60;99.90;;;;;;5090328;28;20123;-85
2022/07/10 08:50:05;;;;;;;9.07;1.63;;;17.60;99.90;;;;;;5072914;28;20081;-85
2022/07/10 08:52:44;;;;;;;6.45;1.50;;;17.60;99.90;;;;;;5090397;28;20670;-85
2022/07/10 08:55:16;;;;;;;9.57;1.50;;;17.50;99.90;;;;;;5089550;28;20085;-85
2022/07/10 08:57:43;;;;;;;5.10;1.35;;;17.40;99.90;;;;;;5089475;28;20036;-85
2022/07/10 09:00:09;;;;;;;6.90;1.50;;;17.40;99.90;;;;;;5089769;28;20081;-85
2022/07/10 09:02:35;;;;;;;5.22;1.30;;;17.40;99.90;;;;;;5088877;28;20722;-85
2022/07/10 09:05:01;;;;;;;4.50;1.25;;;17.40;99.90;;;;;;5090056;28;20052;-85
2022/07/10 09:07:36;;;;;;;4.85;1.40;;;17.40;99.90;;;;;;5090150;28;20043;-85
2022/07/10 09:10:07;;;;;;;6.55;1.45;;;17.40;99.90;;;;;;5089448;28;20548;-85
2022/07/10 09:13:01;;;;;;;6.22;1.10;;;17.40;99.90;;;;;;5073126;28;20072;-85
2022/07/10 09:15:30;;;;;;;6.00;1.20;;;17.40;99.90;;;;;;5075219;28;20040;-84
2022/07/10 09:18:00;;;;;;;5.60;1.60;;;17.40;99.90;;;;;;5070607;28;20038;-85
2022/07/10 09:20:31;;;;;;;4.57;1.17;;;17.50;99.90;;;;;;5088229;28;20122;-85
2022/07/10 09:23:20;;;;;;;4.95;1.20;;;17.50;99.90;;;;;;5072134;28;20043;-85
2022/07/10 09:25:51;;;;;;;4.78;1.40;;;17.50;99.90;;;;;;5072639;28;20416;-85
2022/07/10 09:28:19;;;;;;;3.63;1.25;;;17.60;99.90;;;;;;5089725;28;20495;-85
2022/07/10 09:30:45;;;;;;;5.22;1.38;;;17.70;99.90;;;;;;5088252;28;20124;-85
2022/07/10 09:33:41;;;;;;;6.05;1.38;;;17.70;99.90;;;;;;5072550;28;20036;-86
2022/07/10 09:36:10;;;;;;;4.38;1.13;;;17.70;99.90;;;;;;4990659;28;20049;-85
2022/07/10 09:38:39;;;;;;;4.65;1.50;;;17.60;99.90;;;;;;5007082;28;20045;-86
2022/07/10 09:41:21;;;;;;;8.40;1.85;;;17.70;99.90;;;;;;4974747;28;20185;-85
2022/07/10 09:43:53;;;;;;;5.30;1.35;;;17.80;99.90;;;;;;4974514;28;20046;-85
2022/07/10 09:46:21;;;;;;;;;;;17.90;99.90;;;;;;4992636;28;20057;-85
2022/07/10 09:48:47;;;;;;;5.60;1.30;;;17.90;99.90;;;;;;4991573;28;19944;-86
2022/07/10 09:51:13;;;;;;;6.30;1.40;;;18.00;99.90;;;;;;4991056;28;20431;-85
2022/07/10 09:53:42;;;;;;;7.20;1.13;;;18.10;99.90;;;;;;4975496;28;20069;-85
2022/07/10 09:56:10;;;;;;;4.95;1.33;;;18.10;99.90;;;;;;4990334;28;20065;-85
2022/07/10 09:58:36;;;;;;;4.75;1.20;;;18.20;99.90;;;;;;4990704;28;20048;-85
2022/07/10 10:01:03;;;;;;;5.55;1.40;;;18.10;99.90;;;;;;5006928;28;20120;-85
2022/07/10 10:03:37;;;;;;;5.85;1.40;;;18.10;99.90;;;;;;4974509;28;20065;-85
2022/07/10 10:06:16;;;;;;;4.63;1.10;;;18.10;99.90;;;;;;4991725;28;20053;-85
2022/07/10 10:08:49;;;;;;;4.00;0.90;;;18.10;99.90;;;;;;4975177;28;20052;-85
2022/07/10 10:11:17;;;;;;;4.45;1.23;;;18.00;99.90;;;;;;4974860;28;20207;-85
2022/07/10 10:13:43;;;;;;;4.07;1.05;;;18.00;99.90;;;;;;5087939;28;20032;-85
2022/07/10 10:16:09;;;;;;;2.80;1.00;;;18.10;99.90;;;;;;5087745;28;20508;-85
2022/07/10 10:20:36;;;;;;;4.97;1.20;;;18.20;99.90;;;;;;5089930;28;20035;-85
2022/07/10 10:21:23;;;;;;;4.25;1.00;;;18.20;99.90;;;;;;5086878;28;20123;-84
2022/07/10 10:23:50;;;;;;;3.70;1.15;;;18.20;99.90;;;;;;5093078;28;20076;-85
2022/07/10 10:26:17;;;;;;;5.00;1.23;;;18.30;99.90;;;;;;5092577;28;20038;-85
2022/07/10 10:28:43;;;;;;;5.40;1.60;;;18.40;99.90;;;;;;5091990;28;20044;-85
2022/07/10 10:31:10;;;;;;;5.18;1.40;;;18.40;99.90;;;;;;5091554;28;20106;-85
2022/07/10 10:33:36;;;;;;;5.38;1.30;;;18.40;99.90;;;;;;5094700;28;20039;-84
2022/07/10 10:36:07;;;;;;;4.88;1.38;;;18.50;99.90;;;;;;5075374;28;20048;-85
2022/07/10 10:39:00;;;;;;;5.15;1.33;;;18.60;99.90;;;;;;5091546;28;20036;-85
2022/07/10 10:41:26;;;;;;;7.97;1.60;;;18.60;99.90;;;;;;5055106;28;20444;-85
2022/07/10 10:44:07;;;;;;;7.53;1.70;;;18.60;99.90;;;;;;5071569;28;20131;-84
2022/07/10 10:47:06;;;;;;;8.15;1.63;;;18.50;99.90;;;;;;5090283;28;20044;-85
2022/07/10 10:49:50;;;;;;;5.45;1.50;;;18.40;99.90;;;;;;5047718;28;20127;-85
2022/07/10 10:52:16;;;;;;;5.32;1.45;;;18.30;99.90;;;;;;5090547;28;20036;-85
2022/07/10 10:54:57;;;;;;;5.55;1.40;;;18.30;99.90;;;;;;5092312;28;20379;-85
2022/07/10 10:57:32;;;;;;;4.78;1.20;;;18.30;99.90;;;;;;5073541;28;20082;-85
2022/07/10 10:59:59;;;;;;;4.35;1.40;;;18.30;99.90;;;;;;5074561;28;20048;-85
2022/07/10 11:02:39;;;;;;;4.63;1.45;;;18.30;99.90;;;;;;5091708;28;20047;-85
2022/07/10 11:05:10;;;;;;;4.70;1.45;;;18.40;99.90;;;;;;5074352;28;20092;-85
2022/07/10 11:07:53;;;;;;;5.57;1.70;;;18.40;99.90;;;;;;5076009;28;20439;-85
2022/07/10 11:10:31;;;;;;;5.80;1.70;;;18.60;99.90;;;;;;5090960;28;20341;-85
2022/07/10 11:13:07;;;;;;;8.73;2.17;;;18.60;99.90;;;;;;5055268;28;20040;-85
2022/07/10 11:15:47;;;;;;;6.10;1.90;;;18.60;99.90;;;;;;5059435;28;20073;-85
2022/07/10 11:18:15;;;;;;;7.30;2.20;;;18.60;99.90;;;;;;5066831;28;20498;-85
2022/07/10 11:20:51;;;;;;;7.85;2.42;;;18.60;99.90;;;;;;5098173;28;20040;-85
2022/07/10 11:23:50;;;;;;;8.05;2.50;;;18.70;99.90;;;;;;5064604;28;20032;-85
2022/07/10 11:26:25;;;;;;;6.65;1.90;;;18.80;99.90;;;;;;5097826;28;20036;-85
2022/07/10 11:28:55;;;;;;;5.78;1.80;;;18.90;99.90;;;;;;5067841;28;20111;-85
2022/07/10 11:31:22;;;;;;;5.55;1.75;;;19.10;99.90;;;;;;5076161;28;20075;-85
2022/07/10 11:33:51;;;;;;;7.80;1.83;;;19.20;99.90;;;;;;5077871;28;20051;-85
2022/07/10 11:36:19;;;;;;;7.05;1.80;;;19.30;99.90;;;;;;5074447;28;20044;-85
2022/07/10 11:38:45;;;;;;;6.97;1.80;;;19.40;99.90;;;;;;5073463;28;20052;-86
2022/07/10 11:41:21;;;;;;;8.38;2.17;;;19.50;99.90;;;;;;5089859;28;20503;-85
2022/07/10 11:43:54;;;;;;;6.88;1.63;;;19.60;99.90;;;;;;5091041;28;20055;-85
2022/07/10 11:46:22;;;;;;;7.57;1.75;;;19.70;99.90;;;;;;5091109;28;20040;-86
2022/07/10 11:48:50;;;;;;;7.03;2.10;;;19.80;99.90;;;;;;5074619;28;20490;-86
2022/07/10 11:51:25;;;;;;;7.63;1.90;;;19.90;99.90;;;;;;5090714;28;20390;-86
2022/07/10 11:54:10;;;;;;;9.50;3.63;;;19.90;99.90;;;;;;5091058;28;20409;-85
2022/07/10 11:56:38;;;;;;;7.13;2.38;;;20.00;99.90;;;;;;5090503;28;20080;-85
2022/07/10 11:59:12;;;;;;;5.68;1.77;;;19.90;99.90;;;;;;5072105;28;20469;-85
2022/07/10 12:01:42;;;;;;;8.73;1.95;;;19.90;99.90;;;;;;5080845;28;20036;-86
2022/07/10 12:04:09;;;;;;;6.35;1.80;;;19.90;99.90;;;;;;5087231;28;20486;-86
2022/07/10 12:06:37;;;;;;;7.97;2.10;;;19.80;99.90;;;;;;5089475;28;20067;-85
2022/07/10 12:09:05;;;;;;;7.00;1.88;;;19.80;99.90;;;;;;5090107;28;20409;-85
2022/07/10 12:11:31;;;;;;;6.32;1.88;;;19.90;99.90;;;;;;5073528;28;20036;-85
2022/07/10 12:14:19;;;;;;;7.25;1.95;;;20.00;99.90;;;;;;5092852;28;20081;-85
2022/07/10 12:16:47;;;;;;;6.82;1.80;;;20.10;99.90;;;;;;5102475;28;20107;-86
2022/07/10 12:19:15;;;;;;;7.57;1.70;;;20.10;99.90;;;;;;5089099;28;20040;-85
2022/07/10 12:21:43;;;;;;;6.60;1.70;;;20.00;99.90;;;;;;5073319;28;20035;-85
2022/07/10 12:24:09;;;;;;;8.60;1.90;;;19.90;99.90;;;;;;5089717;28;20036;-85
2022/07/10 12:26:41;;;;;;;7.72;2.00;;;19.80;99.90;;;;;;5073621;28;20050;-85
2022/07/10 12:29:31;;;;;;;6.07;1.85;;;19.70;99.90;;;;;;5090568;28;20167;-85
2022/07/10 12:32:01;;;;;;;8.10;2.05;;;19.50;99.90;;;;;;5087613;28;20047;-85
2022/07/10 12:34:39;;;;;;;5.45;1.50;;;19.40;99.90;;;;;;5073088;28;20027;-85
2022/07/10 12:37:12;;;;;;;5.70;1.77;;;19.40;99.90;;;;;;5072600;28;20040;-85
2022/07/10 12:39:50;;;;;;;6.68;1.85;;;19.50;99.90;;;;;;5088494;28;20576;-85
2022/07/10 12:42:30;;;;;;;6.43;1.70;;;19.70;99.90;;;;;;5090310;28;20040;-85
2022/07/10 12:45:13;;;;;;;5.18;1.73;;;19.80;99.90;;;;;;5072354;28;20039;-85
2022/07/10 12:47:46;;;;;;;7.65;1.60;;;19.90;99.90;;;;;;5072644;28;20040;-85
2022/07/10 12:50:13;;;;;;;7.18;2.05;;;19.90;99.90;;;;;;5072800;28;20413;-85
2022/07/10 12:52:39;;;;;;;8.82;2.25;;;19.70;99.90;;;;;;5089083;28;20040;-85
2022/07/10 12:55:15;;;;;;;6.70;1.75;;;19.70;99.90;;;;;;5089576;28;20062;-85